Etusivu
METAR-TAF:

METAR-TAF

Lentoasemat :

Maya-Mayan kansainvälinen lentoasema

Brazzaville, Kongo

Leveyspiiri: 04-15S, Pituuspiiri: 015-15E, korkeus merenpinnasta: 319 m

Tämänhetkinen sää

Tämä raportti tehtiin 20 minuuttia sitten, kello 10.30 UTC
Tuuli 7 kn lännestä/luoteesta, vaihdellen lounaan ja pohjoisen välillä
Lämpötila 29°C
Kosteus 62%
Ilmanpaine 1012 hPa
Näkyvyys 10 km tai enemmän
Hajanaisia pilviä 1600 ft:n korkeudessa

METAR: FCBB 031030Z 29007KT 230V350 9999 SCT016 29/21 Q1012 NOSIG

Aika: 11:50 (10:50 UTC)

Sääennuste

Tämä raportti tehtiin 5 tuntia ja 50 minuuttia sitten, kello 05.00 UTC
Ennuste voimassa 03. päivästä klo 06 UTC - 04. päivään klo 12 UTC
Tuuli 4 kn lännestä
Näkyvyys: 8000 m
Hajanaisia pilviä 1600 ft:n korkeudessa
Muutamia pilviä 2500 ft:n korkeudessa, Cumulonimbus.
Tulossa
03. päivästä klo 07 UTC - 03. päivään klo 09 UTC
Hajanaisia pilviä 1800 ft:n korkeudessa

TAF: FCBB 030500Z 0306/0412 26004KT 8000 SCT016 FEW025CB BECMG 0307/0309 SCT018

Säähavainnot ja -ennusteet yli 4000 lentoasemalta (METAR- ja TAF-raportit).

Käytössä olevat sääasemat on merkitty karttaan keltaisilla ja punaisilla pisteillä.

Aseta hiiri pisteen päälle nähdäksesi sääaseman nimen.

Klikkaa sitten nähdäksesi säähavainnot ja -ennusteet.

Kartan vaihtaminen: klikkaa mustalla rastilla varustettuja vihreitä pisteitä, niin voit zoomata sisään; viivalla varustettua vihreää pistettä, niin voit zoomata ulos tai vihreitä nuolia, niin pääset viereisille kartoille.


METAR-TAF: